createdAt,value
2023-05-25T00:01:16.216Z,8.70
2023-05-25T00:06:20.059Z,6.10
2023-05-25T00:11:23.478Z,7.50
2023-05-25T00:16:25.490Z,7.50
2023-05-25T00:21:27.542Z,6.00
2023-05-25T00:26:29.245Z,7.50
2023-05-25T00:31:33.538Z,4.40
2023-05-25T00:36:35.497Z,6.20
2023-05-25T00:41:41.591Z,7.10
2023-05-25T00:46:52.075Z,6.00
2023-05-25T00:51:54.265Z,7.20
2023-05-25T00:57:06.622Z,6.90
2023-05-25T01:02:11.073Z,5.90
2023-05-25T01:07:18.715Z,7.40
2023-05-25T01:12:22.832Z,6.50
2023-05-25T01:17:26.595Z,7.10
2023-05-25T01:22:32.600Z,8.20
2023-05-25T01:27:46.935Z,7.80
2023-05-25T01:32:49.487Z,7.90
2023-05-25T01:37:52.460Z,7.10
2023-05-25T01:42:54.337Z,4.90
2023-05-25T01:48:30.526Z,6.40
2023-05-25T01:53:52.655Z,8.00
2023-05-25T01:58:57.910Z,5.30
2023-05-25T02:04:01.192Z,7.70
2023-05-25T02:09:03.350Z,8.20
2023-05-25T02:14:05.717Z,7.00
2023-05-25T02:19:07.488Z,7.60
2023-05-25T02:24:10.313Z,4.40
2023-05-25T02:29:12.295Z,7.90
2023-05-25T02:34:14.252Z,6.40
2023-05-25T02:39:16.120Z,6.80
2023-05-25T02:44:18.125Z,7.50
2023-05-25T02:49:20.107Z,6.80
2023-05-25T02:54:22.397Z,6.90
2023-05-25T02:59:25.123Z,8.20
2023-05-25T03:04:27.288Z,6.60
2023-05-25T03:09:29.173Z,7.50
2023-05-25T03:14:31.222Z,7.60
2023-05-25T03:19:38.229Z,5.90
2023-05-25T03:24:41.813Z,7.50
2023-05-25T03:29:44.239Z,6.10
2023-05-25T03:34:46.174Z,7.40
2023-05-25T03:39:49.713Z,4.90
2023-05-25T03:44:52.478Z,6.70
2023-05-25T03:49:54.422Z,6.00
2023-05-25T03:54:56.774Z,7.30
2023-05-25T03:59:59.386Z,6.10
2023-05-25T04:05:01.332Z,7.20
2023-05-25T04:10:04.836Z,6.60
2023-05-25T04:15:09.548Z,7.70
2023-05-25T04:20:22.783Z,8.40
2023-05-25T04:25:27.947Z,7.50
2023-05-25T04:30:31.938Z,8.00
2023-05-25T04:35:45.565Z,7.90
2023-05-25T04:45:51.502Z,8.90
2023-05-25T04:50:55.981Z,8.00
2023-05-25T04:55:59.023Z,8.20
2023-05-25T05:01:00.857Z,10.00
2023-05-25T05:06:03.513Z,6.50
2023-05-25T05:11:06.444Z,10.40
2023-05-25T05:16:09.026Z,10.00
2023-05-25T05:21:10.846Z,10.40
2023-05-25T05:26:15.120Z,9.20
2023-05-25T05:31:18.526Z,9.80
2023-05-25T05:36:20.890Z,10.20
2023-05-25T05:41:23.491Z,9.50
2023-05-25T05:46:25.554Z,7.90
2023-05-25T05:51:27.252Z,8.20
2023-05-25T05:56:29.070Z,9.10
2023-05-25T06:01:31.639Z,10.40
2023-05-25T06:06:35.101Z,9.30
2023-05-25T06:11:39.929Z,10.10
2023-05-25T06:16:43.701Z,8.60
2023-05-25T06:21:45.650Z,5.60
2023-05-25T06:26:47.411Z,9.00
2023-05-25T06:31:50.051Z,7.40
2023-05-25T06:36:52.863Z,7.10
2023-05-25T06:41:55.281Z,7.70
2023-05-25T06:47:05.956Z,6.80
2023-05-25T06:52:07.685Z,5.40
2023-05-25T06:57:09.363Z,8.80
2023-05-25T07:02:11.404Z,8.30
2023-05-25T07:07:14.177Z,7.70
2023-05-25T07:12:15.888Z,10.00
2023-05-25T07:17:17.571Z,6.90
2023-05-25T07:22:19.653Z,6.00
2023-05-25T07:27:21.346Z,6.30
2023-05-25T07:32:23.056Z,6.10
2023-05-25T07:37:24.885Z,6.70
2023-05-25T07:42:33.071Z,6.10
2023-05-25T07:47:34.885Z,6.00
2023-05-25T07:52:38.317Z,6.40
2023-05-25T07:57:40.389Z,8.20
2023-05-25T08:02:42.254Z,6.20
2023-05-25T08:07:46.088Z,7.60
2023-05-25T08:12:50.115Z,6.10
2023-05-25T08:17:52.333Z,6.30
2023-05-25T08:22:54.513Z,7.10
2023-05-25T08:27:56.300Z,5.80
2023-05-25T08:32:58.047Z,4.00
2023-05-25T08:37:59.869Z,6.50
2023-05-25T08:43:01.710Z,6.60
2023-05-25T08:48:09.384Z,7.80
2023-05-25T08:53:12.755Z,7.10
2023-05-25T09:03:22.401Z,6.50
2023-05-25T09:08:25.079Z,6.50
2023-05-25T09:13:27.081Z,5.60
2023-05-25T09:18:29.030Z,5.60
2023-05-25T09:23:31.566Z,7.10
2023-05-25T09:28:33.278Z,7.90
2023-05-25T09:33:40.032Z,7.80
2023-05-25T09:38:42.168Z,6.90
2023-05-25T09:43:54.791Z,6.70
2023-05-25T09:49:10.621Z,6.00
2023-05-25T09:54:12.935Z,5.90
2023-05-25T09:59:15.134Z,6.60
2023-05-25T10:04:16.922Z,6.40
2023-05-25T10:09:20.269Z,5.70
2023-05-25T10:14:30.325Z,7.30
2023-05-25T10:19:41.389Z,7.60
2023-05-25T10:24:45.175Z,8.10
2023-05-25T10:29:49.733Z,6.50
2023-05-25T10:34:52.675Z,5.40
2023-05-25T10:44:57.935Z,7.50
2023-05-25T10:50:02.476Z,6.50
2023-05-25T10:55:15.353Z,6.70
2023-05-25T11:00:19.428Z,7.10
2023-05-25T11:05:31.263Z,6.40
2023-05-25T11:10:48.099Z,6.20
2023-05-25T11:16:26.140Z,6.30
2023-05-25T11:21:32.223Z,7.30
2023-05-25T11:26:35.642Z,6.20
2023-05-25T11:31:42.235Z,8.10
2023-05-25T11:36:45.625Z,7.00
2023-05-25T11:41:55.401Z,7.70
2023-05-25T11:47:04.669Z,6.20
2023-05-25T11:52:07.534Z,7.90
2023-05-25T11:57:20.681Z,6.90
2023-05-25T12:02:24.030Z,6.50
2023-05-25T12:07:27.556Z,9.90
2023-05-25T12:12:29.269Z,9.60
2023-05-25T12:17:31.034Z,9.80
2023-05-25T12:22:33.544Z,10.00
2023-05-25T12:27:35.794Z,8.80
2023-05-25T12:33:03.863Z,8.80
2023-05-25T12:38:14.633Z,9.00
2023-05-25T12:43:17.626Z,8.60
2023-05-25T12:48:26.504Z,9.90
2023-05-25T12:53:29.137Z,9.70
2023-05-25T12:58:30.947Z,9.50
2023-05-25T13:03:33.173Z,5.30
2023-05-25T13:08:34.894Z,9.60
2023-05-25T13:13:37.461Z,11.20
2023-05-25T13:18:40.106Z,9.40
2023-05-25T13:23:41.828Z,10.10
2023-05-25T13:28:43.541Z,9.10
2023-05-25T13:33:45.647Z,11.20
2023-05-25T13:38:47.380Z,10.50
2023-05-25T13:43:49.600Z,10.00
2023-05-25T13:48:51.307Z,9.50
2023-05-25T13:53:53.626Z,10.40
2023-05-25T13:58:55.652Z,8.50
2023-05-25T14:03:59.925Z,10.80
2023-05-25T14:09:01.794Z,10.00
2023-05-25T14:14:13.683Z,11.00
2023-05-25T14:19:18.655Z,10.90
2023-05-25T14:24:20.386Z,9.70
2023-05-25T14:29:22.087Z,8.80
2023-05-25T14:34:23.732Z,8.80
2023-05-25T14:39:25.902Z,11.30
2023-05-25T14:44:28.394Z,11.20
2023-05-25T14:49:30.060Z,8.50
2023-05-25T14:54:31.778Z,8.50
2023-05-25T14:59:33.633Z,7.70
2023-05-25T15:04:35.725Z,11.50
2023-05-25T15:09:42.279Z,11.50
2023-05-25T15:14:43.937Z,11.10
2023-05-25T15:19:45.863Z,9.60
2023-05-25T15:24:47.617Z,12.90
2023-05-25T15:29:49.262Z,11.10
2023-05-25T15:34:50.960Z,10.40
2023-05-25T15:39:52.690Z,10.00
2023-05-25T15:44:54.406Z,10.60
2023-05-25T15:49:56.150Z,11.80
2023-05-25T15:54:58.171Z,9.50
2023-05-25T15:59:59.824Z,10.00
2023-05-25T16:05:01.653Z,10.50
2023-05-25T16:10:03.684Z,9.80
2023-05-25T16:15:06.498Z,10.60
2023-05-25T16:20:09.343Z,11.30
2023-05-25T16:25:11.492Z,10.60
2023-05-25T16:30:13.843Z,10.90
2023-05-25T16:35:15.799Z,9.30
2023-05-25T16:40:17.635Z,10.60
2023-05-25T16:45:21.079Z,9.00
2023-05-25T16:50:22.864Z,9.40
2023-05-25T16:55:24.680Z,9.20
2023-05-25T17:00:26.385Z,10.20
2023-05-25T17:05:28.114Z,9.30
2023-05-25T17:10:29.789Z,10.90
2023-05-25T17:15:31.659Z,10.50
2023-05-25T17:20:33.396Z,9.30
2023-05-25T17:25:35.103Z,10.20
2023-05-25T17:30:37.125Z,9.80
2023-05-25T17:35:38.868Z,9.10
2023-05-25T17:40:40.594Z,10.40
2023-05-25T17:45:42.385Z,10.50
2023-05-25T17:50:44.558Z,10.20
2023-05-25T17:55:46.684Z,9.60
2023-05-25T18:00:49.105Z,10.20
2023-05-25T18:05:51.214Z,10.80
2023-05-25T18:10:53.228Z,10.40
2023-05-25T18:15:55.017Z,11.10
2023-05-25T18:20:56.674Z,10.90
2023-05-25T18:25:58.614Z,11.40
2023-05-25T18:31:00.365Z,11.30
2023-05-25T18:36:02.227Z,11.60
2023-05-25T18:41:04.170Z,12.80
2023-05-25T18:46:05.925Z,13.70
2023-05-25T18:51:07.651Z,13.70
2023-05-25T18:56:09.334Z,14.10
2023-05-25T19:01:11.055Z,11.90
2023-05-25T19:06:12.739Z,14.50
2023-05-25T19:11:15.577Z,15.20
2023-05-25T19:16:17.450Z,19.30
2023-05-25T19:21:19.369Z,16.20
2023-05-25T19:26:21.042Z,14.00
2023-05-25T19:31:23.586Z,14.20
2023-05-25T19:36:25.809Z,12.90
2023-05-25T19:41:27.736Z,15.80
2023-05-25T19:46:29.752Z,14.20
2023-05-25T19:51:32.974Z,15.30
2023-05-25T19:56:34.992Z,12.90
2023-05-25T20:01:36.775Z,13.30
2023-05-25T20:06:38.716Z,14.00
2023-05-25T20:11:41.605Z,13.90
2023-05-25T20:16:43.510Z,13.10
2023-05-25T20:21:45.335Z,13.10
2023-05-25T20:26:47.051Z,13.20
2023-05-25T20:31:49.508Z,11.70
2023-05-25T20:36:51.228Z,15.50
2023-05-25T20:41:53.216Z,14.00
2023-05-25T20:46:55.487Z,14.20
2023-05-25T20:51:57.181Z,16.40
2023-05-25T20:57:00.977Z,18.40
2023-05-25T21:02:03.935Z,17.40
2023-05-25T21:07:05.782Z,15.40
2023-05-25T21:12:08.357Z,15.10
2023-05-25T21:17:10.839Z,18.60
2023-05-25T21:22:13.452Z,17.10
2023-05-25T21:27:15.165Z,17.50
2023-05-25T21:32:18.250Z,17.10
2023-05-25T21:37:20.189Z,16.50
2023-05-25T21:42:21.906Z,17.60
2023-05-25T21:47:27.403Z,16.60
2023-05-25T21:52:30.667Z,18.30
2023-05-25T21:57:33.747Z,20.30
2023-05-25T22:02:35.513Z,18.70
2023-05-25T22:07:37.261Z,16.90
2023-05-25T22:12:38.991Z,20.60
2023-05-25T22:17:40.764Z,18.70
2023-05-25T22:22:42.501Z,19.50
2023-05-25T22:27:44.372Z,20.30
2023-05-25T22:32:46.101Z,18.00
2023-05-25T22:37:48.595Z,17.40
2023-05-25T22:42:50.598Z,18.40
2023-05-25T22:47:52.437Z,19.10
2023-05-25T22:52:54.225Z,17.40
2023-05-25T22:57:56.226Z,17.90
2023-05-25T23:02:58.013Z,19.30
2023-05-25T23:07:59.905Z,19.20
2023-05-25T23:13:07.286Z,19.40
2023-05-25T23:18:09.078Z,20.80
2023-05-25T23:23:10.984Z,20.60
2023-05-25T23:28:12.719Z,19.20
2023-05-25T23:33:15.099Z,20.00
2023-05-25T23:38:16.804Z,23.10
2023-05-25T23:43:19.304Z,22.40
2023-05-25T23:48:21.463Z,22.30
2023-05-25T23:53:24.422Z,24.00
2023-05-25T23:58:26.109Z,20.80
